sensor_id;sensor_type;location;lat;lon;timestamp;P1;durP1;ratioP1;P2;durP2;ratioP2
9485;SDS011;4781;48.776;9.200;2024-03-02T00:00:49;7.92;;;3.62;;
9485;SDS011;4781;48.776;9.200;2024-03-02T00:03:19;8.35;;;3.70;;
9485;SDS011;4781;48.776;9.200;2024-03-02T00:05:50;7.30;;;3.77;;
9485;SDS011;4781;48.776;9.200;2024-03-02T00:08:22;8.13;;;4.47;;
9485;SDS011;4781;48.776;9.200;2024-03-02T00:10:53;7.78;;;4.15;;
9485;SDS011;4781;48.776;9.200;2024-03-02T00:13:26;9.65;;;4.47;;
9485;SDS011;4781;48.776;9.200;2024-03-02T00:15:57;7.65;;;4.00;;
9485;SDS011;4781;48.776;9.200;2024-03-02T00:18:27;5.58;;;3.90;;
9485;SDS011;4781;48.776;9.200;2024-03-02T00:21:01;8.60;;;4.40;;
9485;SDS011;4781;48.776;9.200;2024-03-02T00:23:30;8.40;;;3.95;;
9485;SDS011;4781;48.776;9.200;2024-03-02T00:26:00;6.15;;;3.35;;
9485;SDS011;4781;48.776;9.200;2024-03-02T00:28:30;9.08;;;4.30;;
9485;SDS011;4781;48.776;9.200;2024-03-02T00:31:10;5.80;;;3.62;;
9485;SDS011;4781;48.776;9.200;2024-03-02T00:33:46;7.03;;;3.72;;
9485;SDS011;4781;48.776;9.200;2024-03-02T00:36:24;7.20;;;3.47;;
9485;SDS011;4781;48.776;9.200;2024-03-02T00:38:54;7.83;;;3.87;;
9485;SDS011;4781;48.776;9.200;2024-03-02T00:41:23;5.37;;;3.27;;
9485;SDS011;4781;48.776;9.200;2024-03-02T00:44:00;5.87;;;3.62;;
9485;SDS011;4781;48.776;9.200;2024-03-02T00:49:23;6.30;;;3.62;;
9485;SDS011;4781;48.776;9.200;2024-03-02T00:51:52;6.15;;;3.25;;
9485;SDS011;4781;48.776;9.200;2024-03-02T00:54:22;8.25;;;3.22;;
9485;SDS011;4781;48.776;9.200;2024-03-02T00:56:54;6.30;;;3.22;;
9485;SDS011;4781;48.776;9.200;2024-03-02T00:59:23;6.20;;;3.67;;
9485;SDS011;4781;48.776;9.200;2024-03-02T01:01:52;7.22;;;3.37;;
9485;SDS011;4781;48.776;9.200;2024-03-02T01:04:20;7.15;;;4.08;;
9485;SDS011;4781;48.776;9.200;2024-03-02T01:06:48;5.45;;;3.00;;
9485;SDS011;4781;48.776;9.200;2024-03-02T01:09:17;6.08;;;3.05;;
9485;SDS011;4781;48.776;9.200;2024-03-02T01:11:46;8.05;;;3.20;;
9485;SDS011;4781;48.776;9.200;2024-03-02T01:14:14;6.42;;;3.67;;
9485;SDS011;4781;48.776;9.200;2024-03-02T01:16:43;5.83;;;2.85;;
9485;SDS011;4781;48.776;9.200;2024-03-02T01:19:11;7.85;;;3.65;;
9485;SDS011;4781;48.776;9.200;2024-03-02T01:21:40;5.53;;;3.02;;
9485;SDS011;4781;48.776;9.200;2024-03-02T01:24:08;7.85;;;3.65;;
9485;SDS011;4781;48.776;9.200;2024-03-02T01:26:37;7.33;;;3.87;;
9485;SDS011;4781;48.776;9.200;2024-03-02T01:29:05;7.40;;;3.15;;
9485;SDS011;4781;48.776;9.200;2024-03-02T01:31:34;7.47;;;3.60;;
9485;SDS011;4781;48.776;9.200;2024-03-02T01:34:02;7.05;;;3.55;;
9485;SDS011;4781;48.776;9.200;2024-03-02T01:36:30;7.62;;;3.62;;
9485;SDS011;4781;48.776;9.200;2024-03-02T01:38:59;7.53;;;3.47;;
9485;SDS011;4781;48.776;9.200;2024-03-02T01:41:27;7.72;;;3.65;;
9485;SDS011;4781;48.776;9.200;2024-03-02T01:43:56;7.37;;;3.60;;
9485;SDS011;4781;48.776;9.200;2024-03-02T01:46:24;6.22;;;3.10;;
9485;SDS011;4781;48.776;9.200;2024-03-02T01:48:52;7.58;;;3.67;;
9485;SDS011;4781;48.776;9.200;2024-03-02T01:51:21;7.70;;;3.45;;
9485;SDS011;4781;48.776;9.200;2024-03-02T01:53:49;5.92;;;3.20;;
9485;SDS011;4781;48.776;9.200;2024-03-02T01:56:18;7.92;;;3.37;;
9485;SDS011;4781;48.776;9.200;2024-03-02T01:58:46;6.60;;;4.03;;
9485;SDS011;4781;48.776;9.200;2024-03-02T02:01:14;6.65;;;4.22;;
9485;SDS011;4781;48.776;9.200;2024-03-02T02:03:43;7.20;;;3.58;;
9485;SDS011;4781;48.776;9.200;2024-03-02T02:06:12;7.00;;;3.95;;
9485;SDS011;4781;48.776;9.200;2024-03-02T02:08:40;8.00;;;3.87;;
9485;SDS011;4781;48.776;9.200;2024-03-02T02:11:09;8.40;;;3.90;;
9485;SDS011;4781;48.776;9.200;2024-03-02T02:13:37;6.53;;;3.60;;
9485;SDS011;4781;48.776;9.200;2024-03-02T02:16:06;7.65;;;3.92;;
9485;SDS011;4781;48.776;9.200;2024-03-02T02:18:35;7.33;;;3.52;;
9485;SDS011;4781;48.776;9.200;2024-03-02T02:21:03;6.55;;;3.52;;
9485;SDS011;4781;48.776;9.200;2024-03-02T02:23:32;7.78;;;4.08;;
9485;SDS011;4781;48.776;9.200;2024-03-02T02:26:00;7.22;;;3.72;;
9485;SDS011;4781;48.776;9.200;2024-03-02T02:28:29;8.35;;;4.25;;
9485;SDS011;4781;48.776;9.200;2024-03-02T02:30:58;6.67;;;3.77;;
9485;SDS011;4781;48.776;9.200;2024-03-02T02:33:26;8.03;;;4.05;;
9485;SDS011;4781;48.776;9.200;2024-03-02T02:35:54;5.70;;;3.35;;
9485;SDS011;4781;48.776;9.200;2024-03-02T02:38:23;7.00;;;3.77;;
9485;SDS011;4781;48.776;9.200;2024-03-02T02:40:52;8.23;;;3.90;;
9485;SDS011;4781;48.776;9.200;2024-03-02T02:43:20;8.40;;;4.28;;
9485;SDS011;4781;48.776;9.200;2024-03-02T02:45:48;8.28;;;3.60;;
9485;SDS011;4781;48.776;9.200;2024-03-02T02:48:17;11.75;;;3.45;;
9485;SDS011;4781;48.776;9.200;2024-03-02T02:50:45;6.40;;;3.62;;
9485;SDS011;4781;48.776;9.200;2024-03-02T02:53:13;7.28;;;3.45;;
9485;SDS011;4781;48.776;9.200;2024-03-02T02:55:42;6.78;;;3.52;;
9485;SDS011;4781;48.776;9.200;2024-03-02T02:58:10;8.00;;;3.95;;
9485;SDS011;4781;48.776;9.200;2024-03-02T03:00:40;8.58;;;3.77;;
9485;SDS011;4781;48.776;9.200;2024-03-02T03:03:08;7.78;;;3.45;;
9485;SDS011;4781;48.776;9.200;2024-03-02T03:05:37;6.05;;;3.37;;
9485;SDS011;4781;48.776;9.200;2024-03-02T03:08:05;7.78;;;3.30;;
9485;SDS011;4781;48.776;9.200;2024-03-02T03:10:34;6.97;;;3.50;;
9485;SDS011;4781;48.776;9.200;2024-03-02T03:13:02;8.95;;;4.50;;
9485;SDS011;4781;48.776;9.200;2024-03-02T03:15:32;8.85;;;3.60;;
9485;SDS011;4781;48.776;9.200;2024-03-02T03:18:04;8.40;;;4.05;;
9485;SDS011;4781;48.776;9.200;2024-03-02T03:20:34;7.35;;;3.47;;
9485;SDS011;4781;48.776;9.200;2024-03-02T03:23:02;8.28;;;3.90;;
9485;SDS011;4781;48.776;9.200;2024-03-02T03:25:31;7.47;;;3.75;;
9485;SDS011;4781;48.776;9.200;2024-03-02T03:28:09;7.87;;;4.25;;
9485;SDS011;4781;48.776;9.200;2024-03-02T03:30:38;8.15;;;4.12;;
9485;SDS011;4781;48.776;9.200;2024-03-02T03:33:07;9.00;;;4.17;;
9485;SDS011;4781;48.776;9.200;2024-03-02T03:35:36;7.05;;;3.72;;
9485;SDS011;4781;48.776;9.200;2024-03-02T03:38:04;10.38;;;3.92;;
9485;SDS011;4781;48.776;9.200;2024-03-02T03:40:33;7.83;;;3.80;;
9485;SDS011;4781;48.776;9.200;2024-03-02T03:43:01;5.83;;;3.45;;
9485;SDS011;4781;48.776;9.200;2024-03-02T03:45:30;7.47;;;3.90;;
9485;SDS011;4781;48.776;9.200;2024-03-02T03:47:59;7.15;;;4.05;;
9485;SDS011;4781;48.776;9.200;2024-03-02T03:50:27;6.58;;;3.83;;
9485;SDS011;4781;48.776;9.200;2024-03-02T03:52:55;7.40;;;3.83;;
9485;SDS011;4781;48.776;9.200;2024-03-02T03:55:24;8.80;;;4.10;;
9485;SDS011;4781;48.776;9.200;2024-03-02T03:57:53;7.50;;;4.10;;
9485;SDS011;4781;48.776;9.200;2024-03-02T04:00:21;6.85;;;3.22;;
9485;SDS011;4781;48.776;9.200;2024-03-02T04:02:49;8.85;;;4.85;;
9485;SDS011;4781;48.776;9.200;2024-03-02T04:05:18;8.08;;;4.15;;
9485;SDS011;4781;48.776;9.200;2024-03-02T04:07:46;7.03;;;3.67;;
9485;SDS011;4781;48.776;9.200;2024-03-02T04:10:14;7.83;;;4.28;;
9485;SDS011;4781;48.776;9.200;2024-03-02T04:12:43;8.55;;;3.98;;
9485;SDS011;4781;48.776;9.200;2024-03-02T04:15:12;6.72;;;4.03;;
9485;SDS011;4781;48.776;9.200;2024-03-02T04:17:40;7.80;;;4.15;;
9485;SDS011;4781;48.776;9.200;2024-03-02T04:20:09;6.15;;;3.58;;
9485;SDS011;4781;48.776;9.200;2024-03-02T04:22:38;6.55;;;3.77;;
9485;SDS011;4781;48.776;9.200;2024-03-02T04:25:06;8.85;;;3.62;;
9485;SDS011;4781;48.776;9.200;2024-03-02T04:27:35;8.25;;;3.85;;
9485;SDS011;4781;48.776;9.200;2024-03-02T04:30:04;7.52;;;4.14;;
9485;SDS011;4781;48.776;9.200;2024-03-02T04:32:34;8.15;;;4.22;;
9485;SDS011;4781;48.776;9.200;2024-03-02T04:35:02;7.67;;;3.98;;
9485;SDS011;4781;48.776;9.200;2024-03-02T04:37:33;7.83;;;3.77;;
9485;SDS011;4781;48.776;9.200;2024-03-02T04:40:02;6.45;;;3.40;;
9485;SDS011;4781;48.776;9.200;2024-03-02T04:42:32;6.33;;;3.80;;
9485;SDS011;4781;48.776;9.200;2024-03-02T04:45:01;8.60;;;4.12;;
9485;SDS011;4781;48.776;9.200;2024-03-02T04:47:29;8.28;;;3.72;;
9485;SDS011;4781;48.776;9.200;2024-03-02T04:49:58;8.53;;;4.30;;
9485;SDS011;4781;48.776;9.200;2024-03-02T04:52:26;9.38;;;4.05;;
9485;SDS011;4781;48.776;9.200;2024-03-02T04:54:54;7.58;;;4.30;;
9485;SDS011;4781;48.776;9.200;2024-03-02T04:57:41;8.18;;;4.90;;
9485;SDS011;4781;48.776;9.200;2024-03-02T05:00:09;12.96;;;4.46;;
9485;SDS011;4781;48.776;9.200;2024-03-02T05:02:38;8.33;;;4.20;;
9485;SDS011;4781;48.776;9.200;2024-03-02T05:05:07;12.78;;;5.47;;
9485;SDS011;4781;48.776;9.200;2024-03-02T05:07:35;7.08;;;3.67;;
9485;SDS011;4781;48.776;9.200;2024-03-02T05:10:04;7.67;;;4.25;;
9485;SDS011;4781;48.776;9.200;2024-03-02T05:12:32;9.53;;;4.20;;
9485;SDS011;4781;48.776;9.200;2024-03-02T05:15:14;8.83;;;4.58;;
9485;SDS011;4781;48.776;9.200;2024-03-02T05:17:40;10.00;;;5.03;;
9485;SDS011;4781;48.776;9.200;2024-03-02T05:20:12;8.10;;;4.58;;
9485;SDS011;4781;48.776;9.200;2024-03-02T05:22:40;7.85;;;4.30;;
9485;SDS011;4781;48.776;9.200;2024-03-02T05:25:09;10.03;;;5.12;;
9485;SDS011;4781;48.776;9.200;2024-03-02T05:27:37;7.90;;;4.37;;
9485;SDS011;4781;48.776;9.200;2024-03-02T05:30:07;8.38;;;4.53;;
9485;SDS011;4781;48.776;9.200;2024-03-02T05:32:36;8.75;;;4.40;;
9485;SDS011;4781;48.776;9.200;2024-03-02T05:35:04;8.33;;;4.00;;
9485;SDS011;4781;48.776;9.200;2024-03-02T05:37:34;8.38;;;4.10;;
9485;SDS011;4781;48.776;9.200;2024-03-02T05:40:02;8.75;;;4.17;;
9485;SDS011;4781;48.776;9.200;2024-03-02T05:42:32;7.35;;;4.28;;
9485;SDS011;4781;48.776;9.200;2024-03-02T05:45:00;8.68;;;4.20;;
9485;SDS011;4781;48.776;9.200;2024-03-02T05:47:29;8.25;;;4.45;;
9485;SDS011;4781;48.776;9.200;2024-03-02T05:49:58;8.13;;;3.80;;
9485;SDS011;4781;48.776;9.200;2024-03-02T05:52:27;8.08;;;4.20;;
9485;SDS011;4781;48.776;9.200;2024-03-02T05:54:55;7.70;;;4.20;;
9485;SDS011;4781;48.776;9.200;2024-03-02T05:57:23;9.53;;;4.62;;
9485;SDS011;4781;48.776;9.200;2024-03-02T05:59:59;12.18;;;6.17;;
9485;SDS011;4781;48.776;9.200;2024-03-02T06:02:29;9.40;;;4.87;;
9485;SDS011;4781;48.776;9.200;2024-03-02T06:04:58;9.20;;;5.62;;
9485;SDS011;4781;48.776;9.200;2024-03-02T06:07:26;10.85;;;6.50;;
9485;SDS011;4781;48.776;9.200;2024-03-02T06:09:54;14.13;;;7.30;;
9485;SDS011;4781;48.776;9.200;2024-03-02T06:12:24;10.20;;;6.33;;
9485;SDS011;4781;48.776;9.200;2024-03-02T06:14:52;9.98;;;5.45;;
9485;SDS011;4781;48.776;9.200;2024-03-02T06:17:21;10.08;;;4.47;;
9485;SDS011;4781;48.776;9.200;2024-03-02T06:19:49;9.53;;;5.42;;
9485;SDS011;4781;48.776;9.200;2024-03-02T06:22:17;8.78;;;4.47;;
9485;SDS011;4781;48.776;9.200;2024-03-02T06:24:47;8.68;;;4.80;;
9485;SDS011;4781;48.776;9.200;2024-03-02T06:27:15;8.50;;;4.25;;
9485;SDS011;4781;48.776;9.200;2024-03-02T06:29:44;9.03;;;4.30;;
9485;SDS011;4781;48.776;9.200;2024-03-02T06:32:12;7.28;;;4.33;;
9485;SDS011;4781;48.776;9.200;2024-03-02T06:34:40;8.53;;;4.37;;
9485;SDS011;4781;48.776;9.200;2024-03-02T06:37:09;13.88;;;4.28;;
9485;SDS011;4781;48.776;9.200;2024-03-02T06:39:38;6.83;;;4.05;;
9485;SDS011;4781;48.776;9.200;2024-03-02T06:42:06;7.40;;;4.28;;
9485;SDS011;4781;48.776;9.200;2024-03-02T06:44:35;8.90;;;5.12;;
9485;SDS011;4781;48.776;9.200;2024-03-02T06:47:03;6.87;;;3.35;;
9485;SDS011;4781;48.776;9.200;2024-03-02T06:49:32;9.75;;;4.45;;
9485;SDS011;4781;48.776;9.200;2024-03-02T06:52:01;9.18;;;4.70;;
9485;SDS011;4781;48.776;9.200;2024-03-02T06:54:29;8.68;;;4.33;;
9485;SDS011;4781;48.776;9.200;2024-03-02T06:56:58;7.87;;;4.00;;
9485;SDS011;4781;48.776;9.200;2024-03-02T06:59:26;8.80;;;4.58;;
9485;SDS011;4781;48.776;9.200;2024-03-02T07:01:54;8.28;;;3.85;;
9485;SDS011;4781;48.776;9.200;2024-03-02T07:04:23;7.50;;;3.90;;
9485;SDS011;4781;48.776;9.200;2024-03-02T07:06:51;6.87;;;3.77;;
9485;SDS011;4781;48.776;9.200;2024-03-02T07:09:20;7.40;;;3.12;;
9485;SDS011;4781;48.776;9.200;2024-03-02T07:11:49;9.33;;;4.62;;
9485;SDS011;4781;48.776;9.200;2024-03-02T07:14:17;8.45;;;4.30;;
9485;SDS011;4781;48.776;9.200;2024-03-02T07:16:46;7.00;;;4.30;;
9485;SDS011;4781;48.776;9.200;2024-03-02T07:19:14;10.15;;;4.58;;
9485;SDS011;4781;48.776;9.200;2024-03-02T07:21:42;8.48;;;3.80;;
9485;SDS011;4781;48.776;9.200;2024-03-02T07:24:11;8.23;;;4.25;;
9485;SDS011;4781;48.776;9.200;2024-03-02T07:26:40;8.20;;;4.37;;
9485;SDS011;4781;48.776;9.200;2024-03-02T07:29:09;7.42;;;3.75;;
9485;SDS011;4781;48.776;9.200;2024-03-02T07:31:38;7.10;;;2.75;;
9485;SDS011;4781;48.776;9.200;2024-03-02T07:34:06;10.95;;;4.87;;
9485;SDS011;4781;48.776;9.200;2024-03-02T07:36:35;8.05;;;3.83;;
9485;SDS011;4781;48.776;9.200;2024-03-02T07:39:04;9.50;;;4.87;;
9485;SDS011;4781;48.776;9.200;2024-03-02T07:41:33;8.35;;;4.42;;
9485;SDS011;4781;48.776;9.200;2024-03-02T07:44:01;9.75;;;4.97;;
9485;SDS011;4781;48.776;9.200;2024-03-02T07:46:30;9.73;;;4.90;;
9485;SDS011;4781;48.776;9.200;2024-03-02T07:48:58;8.60;;;4.75;;
9485;SDS011;4781;48.776;9.200;2024-03-02T07:51:26;9.15;;;4.87;;
9485;SDS011;4781;48.776;9.200;2024-03-02T07:53:55;11.80;;;6.17;;
9485;SDS011;4781;48.776;9.200;2024-03-02T07:56:23;11.00;;;5.50;;
9485;SDS011;4781;48.776;9.200;2024-03-02T07:58:52;8.90;;;4.55;;
9485;SDS011;4781;48.776;9.200;2024-03-02T08:01:23;9.33;;;5.30;;
9485;SDS011;4781;48.776;9.200;2024-03-02T08:03:51;10.35;;;4.78;;
9485;SDS011;4781;48.776;9.200;2024-03-02T08:06:21;8.93;;;4.90;;
9485;SDS011;4781;48.776;9.200;2024-03-02T08:08:49;8.33;;;4.47;;
9485;SDS011;4781;48.776;9.200;2024-03-02T08:11:18;8.65;;;4.58;;
9485;SDS011;4781;48.776;9.200;2024-03-02T08:13:46;9.55;;;4.62;;
9485;SDS011;4781;48.776;9.200;2024-03-02T08:16:15;8.83;;;4.53;;
9485;SDS011;4781;48.776;9.200;2024-03-02T08:18:47;10.65;;;4.95;;
9485;SDS011;4781;48.776;9.200;2024-03-02T08:21:16;8.63;;;3.40;;
9485;SDS011;4781;48.776;9.200;2024-03-02T08:23:45;9.75;;;3.77;;
9485;SDS011;4781;48.776;9.200;2024-03-02T08:26:13;6.90;;;3.00;;
9485;SDS011;4781;48.776;9.200;2024-03-02T08:28:42;8.55;;;3.67;;
9485;SDS011;4781;48.776;9.200;2024-03-02T08:31:10;6.20;;;2.90;;
9485;SDS011;4781;48.776;9.200;2024-03-02T08:33:38;6.58;;;3.08;;
9485;SDS011;4781;48.776;9.200;2024-03-02T08:36:07;6.15;;;3.67;;
9485;SDS011;4781;48.776;9.200;2024-03-02T08:38:36;7.50;;;3.67;;
9485;SDS011;4781;48.776;9.200;2024-03-02T08:41:04;6.10;;;3.33;;
9485;SDS011;4781;48.776;9.200;2024-03-02T08:43:34;5.55;;;3.45;;
9485;SDS011;4781;48.776;9.200;2024-03-02T08:46:02;6.60;;;3.15;;
9485;SDS011;4781;48.776;9.200;2024-03-02T08:48:31;6.08;;;3.15;;
9485;SDS011;4781;48.776;9.200;2024-03-02T08:50:59;5.35;;;2.50;;
9485;SDS011;4781;48.776;9.200;2024-03-02T08:53:29;5.37;;;2.90;;
9485;SDS011;4781;48.776;9.200;2024-03-02T08:55:57;5.72;;;2.98;;
9485;SDS011;4781;48.776;9.200;2024-03-02T08:58:26;5.60;;;2.80;;
9485;SDS011;4781;48.776;9.200;2024-03-02T09:00:54;5.95;;;2.92;;
9485;SDS011;4781;48.776;9.200;2024-03-02T09:03:23;5.03;;;2.52;;
9485;SDS011;4781;48.776;9.200;2024-03-02T09:05:51;5.08;;;2.65;;
9485;SDS011;4781;48.776;9.200;2024-03-02T09:08:19;4.72;;;2.37;;
9485;SDS011;4781;48.776;9.200;2024-03-02T09:10:48;4.33;;;2.35;;
9485;SDS011;4781;48.776;9.200;2024-03-02T09:13:16;4.30;;;2.47;;
9485;SDS011;4781;48.776;9.200;2024-03-02T09:15:45;4.87;;;2.60;;
9485;SDS011;4781;48.776;9.200;2024-03-02T09:18:14;5.03;;;3.00;;
9485;SDS011;4781;48.776;9.200;2024-03-02T09:20:42;4.42;;;2.40;;
9485;SDS011;4781;48.776;9.200;2024-03-02T09:23:11;5.92;;;2.72;;
9485;SDS011;4781;48.776;9.200;2024-03-02T09:25:40;4.55;;;2.50;;
9485;SDS011;4781;48.776;9.200;2024-03-02T09:28:08;5.60;;;2.70;;
9485;SDS011;4781;48.776;9.200;2024-03-02T09:30:38;4.60;;;2.50;;
9485;SDS011;4781;48.776;9.200;2024-03-02T09:33:06;4.55;;;2.50;;
9485;SDS011;4781;48.776;9.200;2024-03-02T09:35:35;5.17;;;2.83;;
9485;SDS011;4781;48.776;9.200;2024-03-02T09:38:03;5.50;;;2.65;;
9485;SDS011;4781;48.776;9.200;2024-03-02T09:40:32;5.12;;;2.62;;
9485;SDS011;4781;48.776;9.200;2024-03-02T09:43:00;5.58;;;2.85;;
9485;SDS011;4781;48.776;9.200;2024-03-02T09:45:30;4.78;;;2.67;;
9485;SDS011;4781;48.776;9.200;2024-03-02T09:50:46;5.05;;;2.80;;
9485;SDS011;4781;48.776;9.200;2024-03-02T09:53:15;7.35;;;2.70;;
9485;SDS011;4781;48.776;9.200;2024-03-02T09:55:46;6.12;;;2.35;;
9485;SDS011;4781;48.776;9.200;2024-03-02T09:58:15;4.60;;;2.55;;
9485;SDS011;4781;48.776;9.200;2024-03-02T10:00:43;5.97;;;2.62;;
9485;SDS011;4781;48.776;9.200;2024-03-02T10:03:12;4.67;;;2.27;;
9485;SDS011;4781;48.776;9.200;2024-03-02T10:05:41;4.85;;;2.55;;
9485;SDS011;4781;48.776;9.200;2024-03-02T10:08:09;4.25;;;2.17;;
9485;SDS011;4781;48.776;9.200;2024-03-02T10:10:38;4.53;;;2.10;;
9485;SDS011;4781;48.776;9.200;2024-03-02T10:13:12;5.03;;;2.15;;
9485;SDS011;4781;48.776;9.200;2024-03-02T10:15:42;5.30;;;2.30;;
9485;SDS011;4781;48.776;9.200;2024-03-02T10:18:11;4.67;;;2.33;;
9485;SDS011;4781;48.776;9.200;2024-03-02T10:20:41;3.60;;;2.25;;
9485;SDS011;4781;48.776;9.200;2024-03-02T10:23:10;5.42;;;2.55;;
9485;SDS011;4781;48.776;9.200;2024-03-02T10:25:43;6.60;;;3.12;;
9485;SDS011;4781;48.776;9.200;2024-03-02T10:28:12;5.00;;;2.60;;
9485;SDS011;4781;48.776;9.200;2024-03-02T10:30:40;5.10;;;2.45;;
9485;SDS011;4781;48.776;9.200;2024-03-02T10:33:09;4.37;;;2.40;;
9485;SDS011;4781;48.776;9.200;2024-03-02T10:35:37;4.15;;;2.25;;
9485;SDS011;4781;48.776;9.200;2024-03-02T10:38:06;5.12;;;2.22;;
9485;SDS011;4781;48.776;9.200;2024-03-02T10:40:35;5.50;;;2.37;;
9485;SDS011;4781;48.776;9.200;2024-03-02T10:43:03;3.77;;;2.17;;
9485;SDS011;4781;48.776;9.200;2024-03-02T10:45:33;3.75;;;2.08;;
9485;SDS011;4781;48.776;9.200;2024-03-02T10:48:01;4.85;;;2.17;;
9485;SDS011;4781;48.776;9.200;2024-03-02T10:50:31;4.55;;;2.45;;
9485;SDS011;4781;48.776;9.200;2024-03-02T10:52:59;4.35;;;2.12;;
9485;SDS011;4781;48.776;9.200;2024-03-02T10:55:28;4.50;;;2.27;;
9485;SDS011;4781;48.776;9.200;2024-03-02T10:57:56;3.87;;;1.98;;
9485;SDS011;4781;48.776;9.200;2024-03-02T11:00:30;4.08;;;1.95;;
9485;SDS011;4781;48.776;9.200;2024-03-02T11:03:18;4.37;;;2.37;;
9485;SDS011;4781;48.776;9.200;2024-03-02T11:05:47;3.92;;;1.95;;
9485;SDS011;4781;48.776;9.200;2024-03-02T11:08:17;3.05;;;1.82;;
9485;SDS011;4781;48.776;9.200;2024-03-02T11:10:50;3.52;;;2.00;;
9485;SDS011;4781;48.776;9.200;2024-03-02T11:13:22;4.58;;;2.10;;
9485;SDS011;4781;48.776;9.200;2024-03-02T11:15:55;4.00;;;1.65;;
9485;SDS011;4781;48.776;9.200;2024-03-02T11:18:28;3.42;;;1.65;;
9485;SDS011;4781;48.776;9.200;2024-03-02T11:20:57;3.02;;;1.75;;
9485;SDS011;4781;48.776;9.200;2024-03-02T11:23:33;3.27;;;1.40;;
9485;SDS011;4781;48.776;9.200;2024-03-02T11:26:18;2.70;;;1.30;;
9485;SDS011;4781;48.776;9.200;2024-03-02T11:28:50;3.02;;;1.40;;
9485;SDS011;4781;48.776;9.200;2024-03-02T11:31:19;2.17;;;1.12;;
9485;SDS011;4781;48.776;9.200;2024-03-02T11:33:48;2.83;;;1.30;;
9485;SDS011;4781;48.776;9.200;2024-03-02T11:36:16;3.65;;;1.50;;
9485;SDS011;4781;48.776;9.200;2024-03-02T11:38:44;2.75;;;1.27;;
9485;SDS011;4781;48.776;9.200;2024-03-02T11:41:14;2.87;;;1.17;;
9485;SDS011;4781;48.776;9.200;2024-03-02T11:43:42;2.30;;;1.20;;
9485;SDS011;4781;48.776;9.200;2024-03-02T11:46:11;3.17;;;1.80;;
9485;SDS011;4781;48.776;9.200;2024-03-02T11:48:39;2.90;;;1.20;;
9485;SDS011;4781;48.776;9.200;2024-03-02T11:51:08;2.42;;;1.10;;
9485;SDS011;4781;48.776;9.200;2024-03-02T11:53:38;2.90;;;1.15;;
9485;SDS011;4781;48.776;9.200;2024-03-02T11:56:07;2.20;;;1.00;;
9485;SDS011;4781;48.776;9.200;2024-03-02T11:58:46;3.60;;;1.20;;
9485;SDS011;4781;48.776;9.200;2024-03-02T12:01:17;1.70;;;0.90;;
9485;SDS011;4781;48.776;9.200;2024-03-02T12:03:46;1.98;;;1.10;;
9485;SDS011;4781;48.776;9.200;2024-03-02T12:06:15;2.15;;;1.00;;
9485;SDS011;4781;48.776;9.200;2024-03-02T12:08:44;1.62;;;0.90;;
9485;SDS011;4781;48.776;9.200;2024-03-02T12:11:13;1.55;;;0.85;;
9485;SDS011;4781;48.776;9.200;2024-03-02T12:13:51;2.58;;;0.90;;
9485;SDS011;4781;48.776;9.200;2024-03-02T12:16:25;1.47;;;0.75;;
9485;SDS011;4781;48.776;9.200;2024-03-02T12:18:54;1.50;;;0.80;;
9485;SDS011;4781;48.776;9.200;2024-03-02T12:21:22;1.50;;;0.72;;
9485;SDS011;4781;48.776;9.200;2024-03-02T12:23:51;1.52;;;0.85;;
9485;SDS011;4781;48.776;9.200;2024-03-02T12:26:19;1.70;;;0.75;;
9485;SDS011;4781;48.776;9.200;2024-03-02T12:28:49;0.98;;;0.60;;
9485;SDS011;4781;48.776;9.200;2024-03-02T12:31:18;1.70;;;0.80;;
9485;SDS011;4781;48.776;9.200;2024-03-02T12:33:46;1.95;;;0.82;;
9485;SDS011;4781;48.776;9.200;2024-03-02T12:36:15;1.02;;;0.60;;
9485;SDS011;4781;48.776;9.200;2024-03-02T12:38:44;1.70;;;0.88;;
9485;SDS011;4781;48.776;9.200;2024-03-02T12:41:16;1.55;;;0.82;;
9485;SDS011;4781;48.776;9.200;2024-03-02T12:43:44;1.17;;;0.60;;
9485;SDS011;4781;48.776;9.200;2024-03-02T12:46:13;3.02;;;0.93;;
9485;SDS011;4781;48.776;9.200;2024-03-02T12:48:42;1.92;;;0.90;;
9485;SDS011;4781;48.776;9.200;2024-03-02T12:51:10;1.20;;;0.68;;
9485;SDS011;4781;48.776;9.200;2024-03-02T12:53:40;2.70;;;0.80;;
9485;SDS011;4781;48.776;9.200;2024-03-02T12:56:08;1.25;;;0.80;;
9485;SDS011;4781;48.776;9.200;2024-03-02T12:58:40;2.22;;;0.80;;
9485;SDS011;4781;48.776;9.200;2024-03-02T13:01:09;1.35;;;0.70;;
9485;SDS011;4781;48.776;9.200;2024-03-02T13:03:38;1.95;;;0.82;;
9485;SDS011;4781;48.776;9.200;2024-03-02T13:06:06;2.08;;;0.80;;
9485;SDS011;4781;48.776;9.200;2024-03-02T13:08:35;1.57;;;0.70;;
9485;SDS011;4781;48.776;9.200;2024-03-02T13:11:04;1.52;;;0.80;;
9485;SDS011;4781;48.776;9.200;2024-03-02T13:13:33;1.30;;;0.78;;
9485;SDS011;4781;48.776;9.200;2024-03-02T13:16:01;1.27;;;0.72;;
9485;SDS011;4781;48.776;9.200;2024-03-02T13:18:33;0.98;;;0.60;;
9485;SDS011;4781;48.776;9.200;2024-03-02T13:21:01;1.27;;;0.70;;
9485;SDS011;4781;48.776;9.200;2024-03-02T13:23:30;2.00;;;0.65;;
9485;SDS011;4781;48.776;9.200;2024-03-02T13:25:58;1.45;;;0.82;;
9485;SDS011;4781;48.776;9.200;2024-03-02T13:28:27;4.80;;;1.07;;
9485;SDS011;4781;48.776;9.200;2024-03-02T13:30:55;1.30;;;0.90;;
9485;SDS011;4781;48.776;9.200;2024-03-02T13:33:24;1.80;;;0.90;;
9485;SDS011;4781;48.776;9.200;2024-03-02T13:35:52;1.82;;;0.70;;
9485;SDS011;4781;48.776;9.200;2024-03-02T13:38:21;1.82;;;0.60;;
9485;SDS011;4781;48.776;9.200;2024-03-02T13:40:49;1.22;;;0.80;;
9485;SDS011;4781;48.776;9.200;2024-03-02T13:43:18;1.32;;;0.65;;
9485;SDS011;4781;48.776;9.200;2024-03-02T13:45:46;1.92;;;0.90;;
9485;SDS011;4781;48.776;9.200;2024-03-02T13:48:15;1.82;;;0.88;;
9485;SDS011;4781;48.776;9.200;2024-03-02T13:50:43;1.52;;;0.80;;
9485;SDS011;4781;48.776;9.200;2024-03-02T13:53:12;2.65;;;0.90;;
9485;SDS011;4781;48.776;9.200;2024-03-02T13:55:40;3.62;;;0.78;;
9485;SDS011;4781;48.776;9.200;2024-03-02T13:58:09;1.87;;;0.90;;
9485;SDS011;4781;48.776;9.200;2024-03-02T14:00:38;1.57;;;0.80;;
9485;SDS011;4781;48.776;9.200;2024-03-02T14:03:06;1.55;;;0.90;;
9485;SDS011;4781;48.776;9.200;2024-03-02T14:05:35;2.05;;;0.93;;
9485;SDS011;4781;48.776;9.200;2024-03-02T14:08:04;1.37;;;0.80;;
9485;SDS011;4781;48.776;9.200;2024-03-02T14:10:32;1.22;;;0.93;;
9485;SDS011;4781;48.776;9.200;2024-03-02T14:13:01;1.30;;;0.80;;
9485;SDS011;4781;48.776;9.200;2024-03-02T14:15:30;1.17;;;0.62;;
9485;SDS011;4781;48.776;9.200;2024-03-02T14:17:59;1.62;;;0.72;;
9485;SDS011;4781;48.776;9.200;2024-03-02T14:20:27;1.52;;;0.70;;
9485;SDS011;4781;48.776;9.200;2024-03-02T14:22:56;1.57;;;0.72;;
9485;SDS011;4781;48.776;9.200;2024-03-02T14:25:25;2.08;;;0.85;;
9485;SDS011;4781;48.776;9.200;2024-03-02T14:27:55;2.60;;;0.93;;
9485;SDS011;4781;48.776;9.200;2024-03-02T14:30:24;2.10;;;1.00;;
9485;SDS011;4781;48.776;9.200;2024-03-02T14:32:52;2.05;;;0.90;;
9485;SDS011;4781;48.776;9.200;2024-03-02T14:35:20;1.62;;;0.90;;
9485;SDS011;4781;48.776;9.200;2024-03-02T14:37:50;2.22;;;0.80;;
9485;SDS011;4781;48.776;9.200;2024-03-02T14:40:18;2.42;;;1.05;;
9485;SDS011;4781;48.776;9.200;2024-03-02T14:42:47;1.92;;;0.70;;
9485;SDS011;4781;48.776;9.200;2024-03-02T14:45:16;1.05;;;0.70;;
9485;SDS011;4781;48.776;9.200;2024-03-02T14:47:44;1.32;;;0.60;;
9485;SDS011;4781;48.776;9.200;2024-03-02T14:50:12;3.25;;;1.07;;
9485;SDS011;4781;48.776;9.200;2024-03-02T14:52:43;1.50;;;0.70;;
9485;SDS011;4781;48.776;9.200;2024-03-02T14:55:12;1.80;;;0.93;;
9485;SDS011;4781;48.776;9.200;2024-03-02T14:57:40;1.12;;;0.60;;
9485;SDS011;4781;48.776;9.200;2024-03-02T15:00:09;1.65;;;0.82;;
9485;SDS011;4781;48.776;9.200;2024-03-02T15:02:38;1.10;;;0.60;;
9485;SDS011;4781;48.776;9.200;2024-03-02T15:05:07;1.07;;;0.78;;
9485;SDS011;4781;48.776;9.200;2024-03-02T15:07:35;2.17;;;0.90;;
9485;SDS011;4781;48.776;9.200;2024-03-02T15:10:04;2.15;;;0.70;;
9485;SDS011;4781;48.776;9.200;2024-03-02T15:12:33;1.98;;;0.75;;
9485;SDS011;4781;48.776;9.200;2024-03-02T15:15:03;1.60;;;0.80;;
9485;SDS011;4781;48.776;9.200;2024-03-02T15:17:32;1.20;;;0.80;;
9485;SDS011;4781;48.776;9.200;2024-03-02T15:20:01;1.30;;;0.80;;
9485;SDS011;4781;48.776;9.200;2024-03-02T15:22:30;1.12;;;0.70;;
9485;SDS011;4781;48.776;9.200;2024-03-02T15:24:58;1.77;;;0.90;;
9485;SDS011;4781;48.776;9.200;2024-03-02T15:27:27;1.07;;;0.60;;
9485;SDS011;4781;48.776;9.200;2024-03-02T15:29:55;1.35;;;0.70;;
9485;SDS011;4781;48.776;9.200;2024-03-02T15:32:23;2.10;;;0.98;;